sensor_id;sensor_type;location;lat;lon;timestamp;temperature;humidity
21950;DHT22;11139;51.284;7.226;2024-03-22T00:01:47;11.90;99.90
21950;DHT22;11139;51.284;7.226;2024-03-22T00:04:13;11.80;99.90
21950;DHT22;11139;51.284;7.226;2024-03-22T00:06:43;11.80;99.90
21950;DHT22;11139;51.284;7.226;2024-03-22T00:09:09;11.80;99.90
21950;DHT22;11139;51.284;7.226;2024-03-22T00:11:35;11.80;99.90
21950;DHT22;11139;51.284;7.226;2024-03-22T00:14:01;11.80;99.90
21950;DHT22;11139;51.284;7.226;2024-03-22T00:16:27;11.80;99.90
21950;DHT22;11139;51.284;7.226;2024-03-22T00:18:53;11.80;99.90
21950;DHT22;11139;51.284;7.226;2024-03-22T00:21:19;11.80;99.90
21950;DHT22;11139;51.284;7.226;2024-03-22T00:23:45;11.80;99.90
21950;DHT22;11139;51.284;7.226;2024-03-22T00:26:10;11.80;99.90
21950;DHT22;11139;51.284;7.226;2024-03-22T00:28:36;11.80;99.90
21950;DHT22;11139;51.284;7.226;2024-03-22T00:31:02;11.80;99.90
21950;DHT22;11139;51.284;7.226;2024-03-22T00:33:27;11.80;99.90
21950;DHT22;11139;51.284;7.226;2024-03-22T00:35:53;11.80;99.90
21950;DHT22;11139;51.284;7.226;2024-03-22T00:38:18;11.80;99.90
21950;DHT22;11139;51.284;7.226;2024-03-22T00:40:44;11.80;99.90
21950;DHT22;11139;51.284;7.226;2024-03-22T00:43:10;11.80;99.90
21950;DHT22;11139;51.284;7.226;2024-03-22T00:45:35;11.80;99.90
21950;DHT22;11139;51.284;7.226;2024-03-22T00:48:01;11.80;99.90
21950;DHT22;11139;51.284;7.226;2024-03-22T00:50:27;11.80;99.90
21950;DHT22;11139;51.284;7.226;2024-03-22T00:52:53;11.80;99.90
21950;DHT22;11139;51.284;7.226;2024-03-22T00:55:21;11.80;99.90
21950;DHT22;11139;51.284;7.226;2024-03-22T00:57:46;11.80;99.90
21950;DHT22;11139;51.284;7.226;2024-03-22T01:00:12;11.80;99.90
21950;DHT22;11139;51.284;7.226;2024-03-22T01:02:39;11.80;99.90
21950;DHT22;11139;51.284;7.226;2024-03-22T01:05:04;11.80;99.90
21950;DHT22;11139;51.284;7.226;2024-03-22T01:07:30;11.80;99.90
21950;DHT22;11139;51.284;7.226;2024-03-22T01:09:55;11.80;99.90
21950;DHT22;11139;51.284;7.226;2024-03-22T01:12:21;11.80;99.90
21950;DHT22;11139;51.284;7.226;2024-03-22T01:14:47;11.80;99.90
21950;DHT22;11139;51.284;7.226;2024-03-22T01:17:12;11.80;99.90
21950;DHT22;11139;51.284;7.226;2024-03-22T01:19:38;11.80;99.90
21950;DHT22;11139;51.284;7.226;2024-03-22T01:22:04;11.80;99.90
21950;DHT22;11139;51.284;7.226;2024-03-22T01:24:29;11.80;99.90
21950;DHT22;11139;51.284;7.226;2024-03-22T01:26:55;11.80;99.90
21950;DHT22;11139;51.284;7.226;2024-03-22T01:29:21;11.80;99.90
21950;DHT22;11139;51.284;7.226;2024-03-22T01:31:47;11.80;99.90
21950;DHT22;11139;51.284;7.226;2024-03-22T01:34:13;11.80;99.90
21950;DHT22;11139;51.284;7.226;2024-03-22T01:36:39;11.70;99.90
21950;DHT22;11139;51.284;7.226;2024-03-22T01:39:04;11.70;99.90
21950;DHT22;11139;51.284;7.226;2024-03-22T01:41:30;11.70;99.90
21950;DHT22;11139;51.284;7.226;2024-03-22T01:43:57;11.70;99.90
21950;DHT22;11139;51.284;7.226;2024-03-22T01:46:23;11.70;99.90
21950;DHT22;11139;51.284;7.226;2024-03-22T01:48:48;11.70;99.90
21950;DHT22;11139;51.284;7.226;2024-03-22T01:51:14;11.70;99.90
21950;DHT22;11139;51.284;7.226;2024-03-22T01:53:40;11.70;99.90
21950;DHT22;11139;51.284;7.226;2024-03-22T01:56:07;11.70;99.90
21950;DHT22;11139;51.284;7.226;2024-03-22T01:58:33;11.70;99.90
21950;DHT22;11139;51.284;7.226;2024-03-22T02:00:58;11.70;99.90
21950;DHT22;11139;51.284;7.226;2024-03-22T02:03:24;11.70;99.90
21950;DHT22;11139;51.284;7.226;2024-03-22T02:05:50;11.70;99.90
21950;DHT22;11139;51.284;7.226;2024-03-22T02:08:15;11.70;99.90
21950;DHT22;11139;51.284;7.226;2024-03-22T02:10:41;11.70;99.90
21950;DHT22;11139;51.284;7.226;2024-03-22T02:13:07;11.70;99.90
21950;DHT22;11139;51.284;7.226;2024-03-22T02:15:32;11.70;99.90
21950;DHT22;11139;51.284;7.226;2024-03-22T02:17:58;11.70;99.90
21950;DHT22;11139;51.284;7.226;2024-03-22T02:20:24;11.70;99.90
21950;DHT22;11139;51.284;7.226;2024-03-22T02:22:49;11.70;99.90
21950;DHT22;11139;51.284;7.226;2024-03-22T02:25:15;11.70;99.90
21950;DHT22;11139;51.284;7.226;2024-03-22T02:27:41;11.70;99.90
21950;DHT22;11139;51.284;7.226;2024-03-22T02:30:07;11.70;99.90
21950;DHT22;11139;51.284;7.226;2024-03-22T02:32:33;11.70;99.90
21950;DHT22;11139;51.284;7.226;2024-03-22T02:34:58;11.70;99.90
21950;DHT22;11139;51.284;7.226;2024-03-22T02:37:24;11.70;99.90
21950;DHT22;11139;51.284;7.226;2024-03-22T02:39:50;11.70;99.90
21950;DHT22;11139;51.284;7.226;2024-03-22T02:42:15;11.70;99.90
21950;DHT22;11139;51.284;7.226;2024-03-22T02:44:41;11.70;99.90
21950;DHT22;11139;51.284;7.226;2024-03-22T02:47:10;11.70;99.90
21950;DHT22;11139;51.284;7.226;2024-03-22T02:49:37;11.60;99.90
21950;DHT22;11139;51.284;7.226;2024-03-22T02:52:03;11.60;99.90
21950;DHT22;11139;51.284;7.226;2024-03-22T02:54:28;11.60;99.90
21950;DHT22;11139;51.284;7.226;2024-03-22T02:56:54;11.70;99.90
21950;DHT22;11139;51.284;7.226;2024-03-22T02:59:19;11.60;99.90
21950;DHT22;11139;51.284;7.226;2024-03-22T03:01:46;11.70;99.90
21950;DHT22;11139;51.284;7.226;2024-03-22T03:04:12;11.60;99.90
21950;DHT22;11139;51.284;7.226;2024-03-22T03:06:37;11.70;99.90
21950;DHT22;11139;51.284;7.226;2024-03-22T03:09:03;11.60;99.90
21950;DHT22;11139;51.284;7.226;2024-03-22T03:11:32;11.60;99.90
21950;DHT22;11139;51.284;7.226;2024-03-22T03:13:58;11.60;99.90
21950;DHT22;11139;51.284;7.226;2024-03-22T03:16:24;11.60;99.90
21950;DHT22;11139;51.284;7.226;2024-03-22T03:18:49;11.60;99.90
21950;DHT22;11139;51.284;7.226;2024-03-22T03:21:15;11.60;99.90
21950;DHT22;11139;51.284;7.226;2024-03-22T03:23:40;11.60;99.90
21950;DHT22;11139;51.284;7.226;2024-03-22T03:26:06;11.60;99.90
21950;DHT22;11139;51.284;7.226;2024-03-22T03:28:31;11.60;99.90
21950;DHT22;11139;51.284;7.226;2024-03-22T03:30:57;11.60;99.90
21950;DHT22;11139;51.284;7.226;2024-03-22T03:33:23;11.60;99.90
21950;DHT22;11139;51.284;7.226;2024-03-22T03:35:48;11.60;99.90
21950;DHT22;11139;51.284;7.226;2024-03-22T03:38:14;11.60;99.90
21950;DHT22;11139;51.284;7.226;2024-03-22T03:40:40;11.60;99.90
21950;DHT22;11139;51.284;7.226;2024-03-22T03:43:05;11.60;99.90
21950;DHT22;11139;51.284;7.226;2024-03-22T03:45:31;11.60;99.90
21950;DHT22;11139;51.284;7.226;2024-03-22T03:47:57;11.60;99.90
21950;DHT22;11139;51.284;7.226;2024-03-22T03:50:22;11.60;99.90
21950;DHT22;11139;51.284;7.226;2024-03-22T03:52:48;11.60;99.90
21950;DHT22;11139;51.284;7.226;2024-03-22T03:55:14;11.60;99.90
21950;DHT22;11139;51.284;7.226;2024-03-22T03:57:40;11.60;99.90
21950;DHT22;11139;51.284;7.226;2024-03-22T04:00:06;11.60;99.90
21950;DHT22;11139;51.284;7.226;2024-03-22T04:02:31;11.60;99.90
21950;DHT22;11139;51.284;7.226;2024-03-22T04:04:57;11.60;99.90
21950;DHT22;11139;51.284;7.226;2024-03-22T04:07:22;11.60;99.90
21950;DHT22;11139;51.284;7.226;2024-03-22T04:09:48;11.60;99.90
21950;DHT22;11139;51.284;7.226;2024-03-22T04:12:14;11.60;99.90
21950;DHT22;11139;51.284;7.226;2024-03-22T04:14:39;11.50;99.90
21950;DHT22;11139;51.284;7.226;2024-03-22T04:17:05;11.50;99.90
21950;DHT22;11139;51.284;7.226;2024-03-22T04:19:31;11.60;99.90
21950;DHT22;11139;51.284;7.226;2024-03-22T04:21:56;11.50;99.90
21950;DHT22;11139;51.284;7.226;2024-03-22T04:24:22;11.60;99.90
21950;DHT22;11139;51.284;7.226;2024-03-22T04:26:48;11.60;99.90
21950;DHT22;11139;51.284;7.226;2024-03-22T04:29:13;11.60;99.90
21950;DHT22;11139;51.284;7.226;2024-03-22T04:31:39;11.60;99.90
21950;DHT22;11139;51.284;7.226;2024-03-22T04:34:05;11.50;99.90
21950;DHT22;11139;51.284;7.226;2024-03-22T04:36:33;11.50;99.90
21950;DHT22;11139;51.284;7.226;2024-03-22T04:38:59;11.50;99.90
21950;DHT22;11139;51.284;7.226;2024-03-22T04:41:25;11.50;99.90
21950;DHT22;11139;51.284;7.226;2024-03-22T04:43:50;11.50;99.90
21950;DHT22;11139;51.284;7.226;2024-03-22T04:46:16;11.50;99.90
21950;DHT22;11139;51.284;7.226;2024-03-22T04:48:41;11.50;99.90
21950;DHT22;11139;51.284;7.226;2024-03-22T04:51:07;11.50;99.90
21950;DHT22;11139;51.284;7.226;2024-03-22T04:53:33;11.50;99.90
21950;DHT22;11139;51.284;7.226;2024-03-22T04:55:58;11.50;99.90
21950;DHT22;11139;51.284;7.226;2024-03-22T04:58:24;11.50;99.90
21950;DHT22;11139;51.284;7.226;2024-03-22T05:00:55;11.50;99.90
21950;DHT22;11139;51.284;7.226;2024-03-22T05:03:21;11.50;99.90
21950;DHT22;11139;51.284;7.226;2024-03-22T05:05:46;11.50;99.90
21950;DHT22;11139;51.284;7.226;2024-03-22T05:08:12;11.50;99.90
21950;DHT22;11139;51.284;7.226;2024-03-22T05:10:37;11.50;99.90
21950;DHT22;11139;51.284;7.226;2024-03-22T05:13:03;11.40;99.90
21950;DHT22;11139;51.284;7.226;2024-03-22T05:15:29;11.50;99.90
21950;DHT22;11139;51.284;7.226;2024-03-22T05:17:56;11.50;99.90
21950;DHT22;11139;51.284;7.226;2024-03-22T05:20:21;11.50;99.90
21950;DHT22;11139;51.284;7.226;2024-03-22T05:22:47;11.50;99.90
21950;DHT22;11139;51.284;7.226;2024-03-22T05:25:13;11.40;99.90
21950;DHT22;11139;51.284;7.226;2024-03-22T05:27:41;11.40;99.90
21950;DHT22;11139;51.284;7.226;2024-03-22T05:30:08;11.40;99.90
21950;DHT22;11139;51.284;7.226;2024-03-22T05:32:34;11.40;99.90
21950;DHT22;11139;51.284;7.226;2024-03-22T05:34:59;11.40;99.90
21950;DHT22;11139;51.284;7.226;2024-03-22T05:37:25;11.40;99.90
21950;DHT22;11139;51.284;7.226;2024-03-22T05:39:51;11.40;99.90
21950;DHT22;11139;51.284;7.226;2024-03-22T05:42:16;11.40;99.90
21950;DHT22;11139;51.284;7.226;2024-03-22T05:44:42;11.40;99.90
21950;DHT22;11139;51.284;7.226;2024-03-22T05:47:08;11.40;99.90
21950;DHT22;11139;51.284;7.226;2024-03-22T05:49:33;11.40;99.90
21950;DHT22;11139;51.284;7.226;2024-03-22T05:51:59;11.40;99.90
21950;DHT22;11139;51.284;7.226;2024-03-22T05:54:25;11.40;99.90
21950;DHT22;11139;51.284;7.226;2024-03-22T05:56:50;11.40;99.90
21950;DHT22;11139;51.284;7.226;2024-03-22T05:59:16;11.40;99.90
21950;DHT22;11139;51.284;7.226;2024-03-22T06:01:41;11.40;99.90
21950;DHT22;11139;51.284;7.226;2024-03-22T06:04:07;11.40;99.90
21950;DHT22;11139;51.284;7.226;2024-03-22T06:06:34;11.40;99.90
21950;DHT22;11139;51.284;7.226;2024-03-22T06:09:03;11.40;99.90
21950;DHT22;11139;51.284;7.226;2024-03-22T06:11:30;11.40;99.90
21950;DHT22;11139;51.284;7.226;2024-03-22T06:13:56;11.40;99.90
21950;DHT22;11139;51.284;7.226;2024-03-22T06:16:21;11.40;99.90
21950;DHT22;11139;51.284;7.226;2024-03-22T06:18:47;11.40;99.90
21950;DHT22;11139;51.284;7.226;2024-03-22T06:21:13;11.40;99.90
21950;DHT22;11139;51.284;7.226;2024-03-22T06:23:51;11.40;99.90
21950;DHT22;11139;51.284;7.226;2024-03-22T06:26:17;11.40;99.90
21950;DHT22;11139;51.284;7.226;2024-03-22T06:28:45;11.40;99.90
21950;DHT22;11139;51.284;7.226;2024-03-22T06:31:10;11.40;99.90
21950;DHT22;11139;51.284;7.226;2024-03-22T06:33:36;11.40;99.90
21950;DHT22;11139;51.284;7.226;2024-03-22T06:36:02;11.40;99.90
21950;DHT22;11139;51.284;7.226;2024-03-22T06:38:28;11.40;99.90
21950;DHT22;11139;51.284;7.226;2024-03-22T06:40:54;11.40;99.90
21950;DHT22;11139;51.284;7.226;2024-03-22T06:43:20;11.40;99.90
21950;DHT22;11139;51.284;7.226;2024-03-22T06:45:45;11.40;99.90
21950;DHT22;11139;51.284;7.226;2024-03-22T06:48:11;11.40;99.90
21950;DHT22;11139;51.284;7.226;2024-03-22T06:50:36;11.40;99.90
21950;DHT22;11139;51.284;7.226;2024-03-22T06:53:02;11.40;99.90
21950;DHT22;11139;51.284;7.226;2024-03-22T06:55:28;11.40;99.90
21950;DHT22;11139;51.284;7.226;2024-03-22T06:57:53;11.40;99.90
21950;DHT22;11139;51.284;7.226;2024-03-22T07:00:19;11.40;99.90
21950;DHT22;11139;51.284;7.226;2024-03-22T07:02:45;11.40;99.90
21950;DHT22;11139;51.284;7.226;2024-03-22T07:05:11;11.40;99.90
21950;DHT22;11139;51.284;7.226;2024-03-22T07:07:37;11.40;99.90
21950;DHT22;11139;51.284;7.226;2024-03-22T07:10:03;11.40;99.90
21950;DHT22;11139;51.284;7.226;2024-03-22T07:12:31;11.40;99.90
21950;DHT22;11139;51.284;7.226;2024-03-22T07:14:58;11.40;99.90
21950;DHT22;11139;51.284;7.226;2024-03-22T07:17:24;11.40;99.90
21950;DHT22;11139;51.284;7.226;2024-03-22T07:19:53;11.40;99.90
21950;DHT22;11139;51.284;7.226;2024-03-22T07:22:19;11.40;99.90
21950;DHT22;11139;51.284;7.226;2024-03-22T07:24:45;11.40;99.90
21950;DHT22;11139;51.284;7.226;2024-03-22T07:27:11;11.50;99.90
21950;DHT22;11139;51.284;7.226;2024-03-22T07:29:37;11.40;99.90
21950;DHT22;11139;51.284;7.226;2024-03-22T07:32:03;11.40;99.90
21950;DHT22;11139;51.284;7.226;2024-03-22T07:34:29;11.40;99.90
21950;DHT22;11139;51.284;7.226;2024-03-22T07:36:55;11.40;99.90
21950;DHT22;11139;51.284;7.226;2024-03-22T07:39:20;11.40;99.90
21950;DHT22;11139;51.284;7.226;2024-03-22T07:41:46;11.40;99.90
21950;DHT22;11139;51.284;7.226;2024-03-22T07:44:12;11.40;99.90
21950;DHT22;11139;51.284;7.226;2024-03-22T07:46:37;11.40;99.90
21950;DHT22;11139;51.284;7.226;2024-03-22T07:49:03;11.40;99.90
21950;DHT22;11139;51.284;7.226;2024-03-22T07:51:30;11.40;99.90
21950;DHT22;11139;51.284;7.226;2024-03-22T07:53:55;11.40;99.90
21950;DHT22;11139;51.284;7.226;2024-03-22T07:56:21;11.40;99.90
21950;DHT22;11139;51.284;7.226;2024-03-22T07:58:47;11.40;99.90
21950;DHT22;11139;51.284;7.226;2024-03-22T08:01:13;11.40;99.90
21950;DHT22;11139;51.284;7.226;2024-03-22T08:03:38;11.50;99.90
21950;DHT22;11139;51.284;7.226;2024-03-22T08:06:04;11.50;99.90
21950;DHT22;11139;51.284;7.226;2024-03-22T08:08:30;11.50;99.90
21950;DHT22;11139;51.284;7.226;2024-03-22T08:10:56;11.50;99.90
21950;DHT22;11139;51.284;7.226;2024-03-22T08:13:21;11.50;99.90
21950;DHT22;11139;51.284;7.226;2024-03-22T08:15:47;11.50;99.90
21950;DHT22;11139;51.284;7.226;2024-03-22T08:18:12;11.50;99.90
21950;DHT22;11139;51.284;7.226;2024-03-22T08:20:38;11.50;99.90
21950;DHT22;11139;51.284;7.226;2024-03-22T08:23:05;11.50;99.90
21950;DHT22;11139;51.284;7.226;2024-03-22T08:25:30;11.50;99.90
21950;DHT22;11139;51.284;7.226;2024-03-22T08:27:56;11.50;99.90
21950;DHT22;11139;51.284;7.226;2024-03-22T08:30:24;11.50;99.90
21950;DHT22;11139;51.284;7.226;2024-03-22T08:32:51;11.50;99.90
21950;DHT22;11139;51.284;7.226;2024-03-22T08:35:17;11.50;99.90
21950;DHT22;11139;51.284;7.226;2024-03-22T08:37:42;11.50;99.90
21950;DHT22;11139;51.284;7.226;2024-03-22T08:40:08;11.50;99.90
21950;DHT22;11139;51.284;7.226;2024-03-22T08:42:35;11.50;99.90
21950;DHT22;11139;51.284;7.226;2024-03-22T08:45:01;11.50;99.90
21950;DHT22;11139;51.284;7.226;2024-03-22T08:47:27;11.50;99.90
21950;DHT22;11139;51.284;7.226;2024-03-22T08:49:52;11.50;99.90
21950;DHT22;11139;51.284;7.226;2024-03-22T08:52:18;11.50;99.90
21950;DHT22;11139;51.284;7.226;2024-03-22T08:54:43;11.50;99.90
21950;DHT22;11139;51.284;7.226;2024-03-22T08:57:09;11.50;99.90
21950;DHT22;11139;51.284;7.226;2024-03-22T08:59:34;11.50;99.90
21950;DHT22;11139;51.284;7.226;2024-03-22T09:02:00;11.50;99.90
21950;DHT22;11139;51.284;7.226;2024-03-22T09:04:26;11.60;99.90
21950;DHT22;11139;51.284;7.226;2024-03-22T09:06:52;11.50;99.90
21950;DHT22;11139;51.284;7.226;2024-03-22T09:09:17;11.60;99.90
21950;DHT22;11139;51.284;7.226;2024-03-22T09:11:43;11.50;99.90
21950;DHT22;11139;51.284;7.226;2024-03-22T09:14:09;11.60;99.90
21950;DHT22;11139;51.284;7.226;2024-03-22T09:16:34;11.60;99.90
21950;DHT22;11139;51.284;7.226;2024-03-22T09:19:00;11.60;99.90
21950;DHT22;11139;51.284;7.226;2024-03-22T09:21:26;11.60;99.90
21950;DHT22;11139;51.284;7.226;2024-03-22T09:23:51;11.50;99.90
21950;DHT22;11139;51.284;7.226;2024-03-22T09:26:17;11.60;99.90
21950;DHT22;11139;51.284;7.226;2024-03-22T09:28:46;11.50;99.90
21950;DHT22;11139;51.284;7.226;2024-03-22T09:31:12;11.60;99.90
21950;DHT22;11139;51.284;7.226;2024-03-22T09:33:37;11.60;99.90
21950;DHT22;11139;51.284;7.226;2024-03-22T09:36:03;11.60;99.90
21950;DHT22;11139;51.284;7.226;2024-03-22T09:38:29;11.60;99.90
21950;DHT22;11139;51.284;7.226;2024-03-22T09:40:55;11.60;99.90
21950;DHT22;11139;51.284;7.226;2024-03-22T09:43:21;11.60;99.90
21950;DHT22;11139;51.284;7.226;2024-03-22T09:45:48;11.60;99.90
21950;DHT22;11139;51.284;7.226;2024-03-22T09:48:18;11.60;99.90
21950;DHT22;11139;51.284;7.226;2024-03-22T09:50:46;11.60;99.90
21950;DHT22;11139;51.284;7.226;2024-03-22T09:53:13;11.60;99.90
21950;DHT22;11139;51.284;7.226;2024-03-22T09:55:41;11.60;99.90
21950;DHT22;11139;51.284;7.226;2024-03-22T09:58:10;11.60;99.90
21950;DHT22;11139;51.284;7.226;2024-03-22T10:00:35;11.60;99.90
21950;DHT22;11139;51.284;7.226;2024-03-22T10:03:01;11.60;99.90
21950;DHT22;11139;51.284;7.226;2024-03-22T10:05:29;11.60;99.90
21950;DHT22;11139;51.284;7.226;2024-03-22T10:07:55;11.60;99.90
21950;DHT22;11139;51.284;7.226;2024-03-22T10:10:21;11.60;99.90
21950;DHT22;11139;51.284;7.226;2024-03-22T10:12:47;11.60;99.90
21950;DHT22;11139;51.284;7.226;2024-03-22T10:15:13;11.60;99.90
21950;DHT22;11139;51.284;7.226;2024-03-22T10:17:39;11.60;99.90
21950;DHT22;11139;51.284;7.226;2024-03-22T10:20:06;11.60;99.90
21950;DHT22;11139;51.284;7.226;2024-03-22T10:23:03;11.60;99.90
21950;DHT22;11139;51.284;7.226;2024-03-22T10:25:28;11.70;99.90
21950;DHT22;11139;51.284;7.226;2024-03-22T10:27:55;11.70;99.90
21950;DHT22;11139;51.284;7.226;2024-03-22T10:30:22;11.70;99.90
21950;DHT22;11139;51.284;7.226;2024-03-22T10:32:49;11.70;99.90
21950;DHT22;11139;51.284;7.226;2024-03-22T10:35:15;11.60;99.90
21950;DHT22;11139;51.284;7.226;2024-03-22T10:37:41;11.70;99.90
21950;DHT22;11139;51.284;7.226;2024-03-22T10:40:07;11.70;99.90
21950;DHT22;11139;51.284;7.226;2024-03-22T10:42:35;11.70;99.90
21950;DHT22;11139;51.284;7.226;2024-03-22T10:45:05;11.70;99.90
21950;DHT22;11139;51.284;7.226;2024-03-22T10:47:33;11.70;99.90
21950;DHT22;11139;51.284;7.226;2024-03-22T10:50:05;11.70;99.90
21950;DHT22;11139;51.284;7.226;2024-03-22T10:52:49;11.70;99.90
21950;DHT22;11139;51.284;7.226;2024-03-22T10:55:37;11.70;99.90
21950;DHT22;11139;51.284;7.226;2024-03-22T10:58:03;11.70;99.90
21950;DHT22;11139;51.284;7.226;2024-03-22T11:00:30;11.70;99.90
21950;DHT22;11139;51.284;7.226;2024-03-22T11:02:56;11.70;99.90
21950;DHT22;11139;51.284;7.226;2024-03-22T11:05:22;11.70;99.90
21950;DHT22;11139;51.284;7.226;2024-03-22T11:07:58;11.70;99.90
21950;DHT22;11139;51.284;7.226;2024-03-22T11:10:28;11.70;99.90
21950;DHT22;11139;51.284;7.226;2024-03-22T11:12:55;11.90;99.90
21950;DHT22;11139;51.284;7.226;2024-03-22T11:15:22;12.00;99.90
21950;DHT22;11139;51.284;7.226;2024-03-22T11:17:47;11.90;99.90
21950;DHT22;11139;51.284;7.226;2024-03-22T11:20:15;12.00;99.90
21950;DHT22;11139;51.284;7.226;2024-03-22T11:22:41;12.00;99.90
21950;DHT22;11139;51.284;7.226;2024-03-22T11:25:06;12.00;99.90
21950;DHT22;11139;51.284;7.226;2024-03-22T11:27:32;12.00;99.90
21950;DHT22;11139;51.284;7.226;2024-03-22T11:29:58;12.00;99.90
21950;DHT22;11139;51.284;7.226;2024-03-22T11:32:24;12.00;99.90
21950;DHT22;11139;51.284;7.226;2024-03-22T11:34:50;12.10;99.90
21950;DHT22;11139;51.284;7.226;2024-03-22T11:37:15;12.10;99.90
21950;DHT22;11139;51.284;7.226;2024-03-22T11:39:41;12.10;99.90
21950;DHT22;11139;51.284;7.226;2024-03-22T11:42:07;12.00;99.90
21950;DHT22;11139;51.284;7.226;2024-03-22T11:44:36;12.10;99.90
21950;DHT22;11139;51.284;7.226;2024-03-22T11:47:02;12.10;99.90
21950;DHT22;11139;51.284;7.226;2024-03-22T11:49:28;12.00;99.90
21950;DHT22;11139;51.284;7.226;2024-03-22T11:51:56;12.10;99.90
21950;DHT22;11139;51.284;7.226;2024-03-22T11:54:22;12.10;99.90
21950;DHT22;11139;51.284;7.226;2024-03-22T11:56:49;12.20;99.90
21950;DHT22;11139;51.284;7.226;2024-03-22T11:59:14;12.20;99.90
21950;DHT22;11139;51.284;7.226;2024-03-22T12:01:41;12.20;99.90
21950;DHT22;11139;51.284;7.226;2024-03-22T12:04:06;12.20;99.90
21950;DHT22;11139;51.284;7.226;2024-03-22T12:06:34;12.20;99.90
21950;DHT22;11139;51.284;7.226;2024-03-22T12:09:00;12.20;99.90
21950;DHT22;11139;51.284;7.226;2024-03-22T12:11:26;12.20;99.90
21950;DHT22;11139;51.284;7.226;2024-03-22T12:13:51;12.20;99.90
21950;DHT22;11139;51.284;7.226;2024-03-22T12:16:17;12.20;99.90
21950;DHT22;11139;51.284;7.226;2024-03-22T12:18:43;12.20;99.90
21950;DHT22;11139;51.284;7.226;2024-03-22T12:21:08;12.20;99.90
21950;DHT22;11139;51.284;7.226;2024-03-22T12:23:34;12.20;99.90
21950;DHT22;11139;51.284;7.226;2024-03-22T12:25:59;12.20;99.90
21950;DHT22;11139;51.284;7.226;2024-03-22T12:28:25;12.20;99.90
21950;DHT22;11139;51.284;7.226;2024-03-22T12:30:50;12.20;99.90
21950;DHT22;11139;51.284;7.226;2024-03-22T12:33:16;12.20;99.90
21950;DHT22;11139;51.284;7.226;2024-03-22T12:35:42;12.20;99.90
21950;DHT22;11139;51.284;7.226;2024-03-22T12:38:08;12.20;99.90
21950;DHT22;11139;51.284;7.226;2024-03-22T12:40:39;12.20;99.90
21950;DHT22;11139;51.284;7.226;2024-03-22T12:43:05;12.20;99.90
21950;DHT22;11139;51.284;7.226;2024-03-22T12:45:31;12.20;99.90
21950;DHT22;11139;51.284;7.226;2024-03-22T12:47:58;12.20;99.90
21950;DHT22;11139;51.284;7.226;2024-03-22T12:50:24;12.20;99.90
21950;DHT22;11139;51.284;7.226;2024-03-22T12:52:50;12.20;99.90
21950;DHT22;11139;51.284;7.226;2024-03-22T12:55:15;12.30;99.90
21950;DHT22;11139;51.284;7.226;2024-03-22T12:57:41;12.30;99.90
21950;DHT22;11139;51.284;7.226;2024-03-22T13:00:08;12.30;99.90
21950;DHT22;11139;51.284;7.226;2024-03-22T13:02:39;12.30;99.90
21950;DHT22;11139;51.284;7.226;2024-03-22T13:05:06;12.30;99.90
21950;DHT22;11139;51.284;7.226;2024-03-22T13:07:32;12.20;99.90
21950;DHT22;11139;51.284;7.226;2024-03-22T13:09:57;12.20;99.90
21950;DHT22;11139;51.284;7.226;2024-03-22T13:12:26;12.20;99.90
21950;DHT22;11139;51.284;7.226;2024-03-22T13:14:51;12.20;99.90
21950;DHT22;11139;51.284;7.226;2024-03-22T13:17:17;12.20;99.90
21950;DHT22;11139;51.284;7.226;2024-03-22T13:19:43;12.20;99.90
21950;DHT22;11139;51.284;7.226;2024-03-22T13:22:08;12.20;99.90
21950;DHT22;11139;51.284;7.226;2024-03-22T13:24:34;12.20;99.90
21950;DHT22;11139;51.284;7.226;2024-03-22T13:27:01;12.20;99.90
21950;DHT22;11139;51.284;7.226;2024-03-22T13:29:28;12.20;99.90
21950;DHT22;11139;51.284;7.226;2024-03-22T13:31:53;12.20;99.90
21950;DHT22;11139;51.284;7.226;2024-03-22T13:34:19;12.20;99.90
21950;DHT22;11139;51.284;7.226;2024-03-22T13:36:45;12.20;99.90
21950;DHT22;11139;51.284;7.226;2024-03-22T13:39:10;12.20;99.90
21950;DHT22;11139;51.284;7.226;2024-03-22T13:41:36;12.20;99.90
21950;DHT22;11139;51.284;7.226;2024-03-22T13:44:02;12.20;99.90
21950;DHT22;11139;51.284;7.226;2024-03-22T13:46:31;12.20;99.90
21950;DHT22;11139;51.284;7.226;2024-03-22T13:48:57;12.20;99.90
21950;DHT22;11139;51.284;7.226;2024-03-22T13:51:23;12.20;99.90
21950;DHT22;11139;51.284;7.226;2024-03-22T13:53:50;12.20;99.90
21950;DHT22;11139;51.284;7.226;2024-03-22T13:56:16;12.20;99.90
21950;DHT22;11139;51.284;7.226;2024-03-22T13:58:41;12.20;99.90
21950;DHT22;11139;51.284;7.226;2024-03-22T14:01:07;12.20;99.90
21950;DHT22;11139;51.284;7.226;2024-03-22T14:03:32;12.30;99.90
21950;DHT22;11139;51.284;7.226;2024-03-22T14:05:58;12.50;99.90
21950;DHT22;11139;51.284;7.226;2024-03-22T14:08:24;12.60;99.90
21950;DHT22;11139;51.284;7.226;2024-03-22T14:10:49;12.70;99.90
21950;DHT22;11139;51.284;7.226;2024-03-22T14:13:15;12.80;99.90
21950;DHT22;11139;51.284;7.226;2024-03-22T14:15:41;12.80;99.90
21950;DHT22;11139;51.284;7.226;2024-03-22T14:18:06;12.90;99.90
21950;DHT22;11139;51.284;7.226;2024-03-22T14:20:32;12.90;99.90
21950;DHT22;11139;51.284;7.226;2024-03-22T14:22:57;12.90;99.90
21950;DHT22;11139;51.284;7.226;2024-03-22T14:25:23;13.00;99.90
21950;DHT22;11139;51.284;7.226;2024-03-22T14:27:49;13.00;99.90
21950;DHT22;11139;51.284;7.226;2024-03-22T14:30:14;13.00;99.90
21950;DHT22;11139;51.284;7.226;2024-03-22T14:32:41;13.00;99.90
21950;DHT22;11139;51.284;7.226;2024-03-22T14:35:07;13.00;99.90
21950;DHT22;11139;51.284;7.226;2024-03-22T14:37:34;13.00;99.90
21950;DHT22;11139;51.284;7.226;2024-03-22T14:39:59;13.30;99.90
21950;DHT22;11139;51.284;7.226;2024-03-22T14:42:25;13.50;99.90
21950;DHT22;11139;51.284;7.226;2024-03-22T14:44:51;13.70;99.90
21950;DHT22;11139;51.284;7.226;2024-03-22T14:47:17;13.90;99.90
21950;DHT22;11139;51.284;7.226;2024-03-22T14:49:42;13.90;99.90
21950;DHT22;11139;51.284;7.226;2024-03-22T14:52:08;14.00;99.90
21950;DHT22;11139;51.284;7.226;2024-03-22T14:54:34;13.90;99.90
21950;DHT22;11139;51.284;7.226;2024-03-22T14:57:00;13.70;99.90
21950;DHT22;11139;51.284;7.226;2024-03-22T14:59:29;13.60;99.90
21950;DHT22;11139;51.284;7.226;2024-03-22T15:01:55;13.50;99.90
21950;DHT22;11139;51.284;7.226;2024-03-22T15:04:21;13.40;99.90
21950;DHT22;11139;51.284;7.226;2024-03-22T15:06:47;13.30;99.90
21950;DHT22;11139;51.284;7.226;2024-03-22T15:09:17;13.30;99.90
21950;DHT22;11139;51.284;7.226;2024-03-22T15:11:44;13.30;99.90
21950;DHT22;11139;51.284;7.226;2024-03-22T15:14:10;13.20;99.90
21950;DHT22;11139;51.284;7.226;2024-03-22T15:16:35;13.20;99.90
21950;DHT22;11139;51.284;7.226;2024-03-22T15:19:02;13.40;99.90
21950;DHT22;11139;51.284;7.226;2024-03-22T15:21:28;13.70;99.90
21950;DHT22;11139;51.284;7.226;2024-03-22T15:23:54;14.00;99.90